Аэропорт: Ульяновск-Восточный. Ульяновск

ICAO: UWLW

METAR:
2018/07/22 20:00
UWLW 222000Z 08005MPS 8000 NSC 19/12 Q1014 R20/CLRD60 NOSIG RMK QFE755
METAR:
2018/07/22 18:21
TAF UWLW 221645Z 2218/2318 08003G08MPS 8000 BKN030 
      TEMPO 2303/2318 13008G14MPS